KDET

Coleman A Young Municipal Airport

Detroit, Michigan, USA
METAR KDET 190653Z 18005KT 8SM SCT110 M02/M03 A3005 RMK AO2 SLP184 T10171033
Observed Flight Rules
Dec-19 @ 06:53 UTC (39 minutes ago) Visual Flight Rules
Wind Visibility Clouds
180° at 5 knots 8 miles
  • Scattered at 11,000' AGL
Temperatures Readings
Current -2°C / 28°F
Dewpoint -3°C / 27°F
Humidity 93%
Altimeter 30.05" Hg
Pressure 1018.4 hPa
Elevation 190
METAR KDET 190653Z 18005KT 8SM SCT110 M02/M03 A3005 RMK AO2 SLP184 T10171033
Observed Flight Rules
Dec-19 @ 06:53 UTC
(39 minutes ago)
VFR
Wind Visibility
180° at 5 knots 8 miles
Clouds
  • Scattered at 11,000' AGL
Temperature Dewpoint
-2°C / 28°F -3°C / 27°F
Humidity Altimeter Pressure
93% 30.05" Hg 1018.4 hPa